sensor_id;sensor_type;location;lat;lon;timestamp;temperature;humidity
20446;DHT22;10382;49.140;9.234;2022-07-21T00:02:19;23.80;99.90
20446;DHT22;10382;49.140;9.234;2022-07-21T00:04:46;23.60;99.90
20446;DHT22;10382;49.140;9.234;2022-07-21T00:07:13;23.60;99.90
20446;DHT22;10382;49.140;9.234;2022-07-21T00:09:40;23.50;99.90
20446;DHT22;10382;49.140;9.234;2022-07-21T00:12:07;23.50;99.90
20446;DHT22;10382;49.140;9.234;2022-07-21T00:14:34;23.40;99.90
20446;DHT22;10382;49.140;9.234;2022-07-21T00:17:03;23.30;99.90
20446;DHT22;10382;49.140;9.234;2022-07-21T00:19:30;23.20;99.90
20446;DHT22;10382;49.140;9.234;2022-07-21T00:21:57;23.10;99.90
20446;DHT22;10382;49.140;9.234;2022-07-21T00:24:23;23.00;99.90
20446;DHT22;10382;49.140;9.234;2022-07-21T00:26:50;23.00;99.90
20446;DHT22;10382;49.140;9.234;2022-07-21T00:29:17;23.00;99.90
20446;DHT22;10382;49.140;9.234;2022-07-21T00:31:44;23.00;99.90
20446;DHT22;10382;49.140;9.234;2022-07-21T00:34:12;23.00;99.90
20446;DHT22;10382;49.140;9.234;2022-07-21T00:36:39;23.00;99.90
20446;DHT22;10382;49.140;9.234;2022-07-21T00:39:06;23.10;99.90
20446;DHT22;10382;49.140;9.234;2022-07-21T00:41:33;23.10;99.90
20446;DHT22;10382;49.140;9.234;2022-07-21T00:44:00;23.10;99.90
20446;DHT22;10382;49.140;9.234;2022-07-21T00:46:27;23.00;99.90
20446;DHT22;10382;49.140;9.234;2022-07-21T00:48:54;23.00;99.90
20446;DHT22;10382;49.140;9.234;2022-07-21T00:51:22;23.00;99.90
20446;DHT22;10382;49.140;9.234;2022-07-21T00:53:49;23.00;99.90
20446;DHT22;10382;49.140;9.234;2022-07-21T00:56:17;23.00;99.90
20446;DHT22;10382;49.140;9.234;2022-07-21T00:58:47;23.00;99.90
20446;DHT22;10382;49.140;9.234;2022-07-21T01:01:14;23.00;99.90
20446;DHT22;10382;49.140;9.234;2022-07-21T01:03:41;23.10;99.90
20446;DHT22;10382;49.140;9.234;2022-07-21T01:06:08;23.20;99.90
20446;DHT22;10382;49.140;9.234;2022-07-21T01:08:36;23.20;99.90
20446;DHT22;10382;49.140;9.234;2022-07-21T01:11:03;23.20;99.90
20446;DHT22;10382;49.140;9.234;2022-07-21T01:13:30;23.30;99.90
20446;DHT22;10382;49.140;9.234;2022-07-21T01:15:58;23.20;99.90
20446;DHT22;10382;49.140;9.234;2022-07-21T01:18:25;23.30;99.90
20446;DHT22;10382;49.140;9.234;2022-07-21T01:20:54;23.30;99.90
20446;DHT22;10382;49.140;9.234;2022-07-21T01:23:23;23.30;99.90
20446;DHT22;10382;49.140;9.234;2022-07-21T01:25:51;23.40;99.90
20446;DHT22;10382;49.140;9.234;2022-07-21T01:28:18;23.50;99.90
20446;DHT22;10382;49.140;9.234;2022-07-21T01:30:45;23.40;99.90
20446;DHT22;10382;49.140;9.234;2022-07-21T01:33:12;23.40;99.90
20446;DHT22;10382;49.140;9.234;2022-07-21T01:35:39;23.30;99.90
20446;DHT22;10382;49.140;9.234;2022-07-21T01:38:06;23.10;99.90
20446;DHT22;10382;49.140;9.234;2022-07-21T01:40:58;23.10;99.90
20446;DHT22;10382;49.140;9.234;2022-07-21T01:43:55;22.90;99.90
20446;DHT22;10382;49.140;9.234;2022-07-21T01:46:22;22.80;99.90
20446;DHT22;10382;49.140;9.234;2022-07-21T01:48:49;22.80;99.90
20446;DHT22;10382;49.140;9.234;2022-07-21T01:51:16;22.80;99.90
20446;DHT22;10382;49.140;9.234;2022-07-21T01:53:43;22.70;99.90
20446;DHT22;10382;49.140;9.234;2022-07-21T01:56:11;22.60;99.90
20446;DHT22;10382;49.140;9.234;2022-07-21T01:58:38;22.60;99.90
20446;DHT22;10382;49.140;9.234;2022-07-21T02:01:05;22.50;99.90
20446;DHT22;10382;49.140;9.234;2022-07-21T02:03:33;22.50;99.90
20446;DHT22;10382;49.140;9.234;2022-07-21T02:06:01;22.40;99.90
20446;DHT22;10382;49.140;9.234;2022-07-21T02:08:28;22.30;99.90
20446;DHT22;10382;49.140;9.234;2022-07-21T02:10:55;22.30;99.90
20446;DHT22;10382;49.140;9.234;2022-07-21T02:13:24;22.30;99.90
20446;DHT22;10382;49.140;9.234;2022-07-21T02:15:51;22.30;99.90
20446;DHT22;10382;49.140;9.234;2022-07-21T02:18:19;22.20;99.90
20446;DHT22;10382;49.140;9.234;2022-07-21T02:20:46;22.10;99.90
20446;DHT22;10382;49.140;9.234;2022-07-21T02:23:14;22.00;99.90
20446;DHT22;10382;49.140;9.234;2022-07-21T02:25:41;21.90;99.90
20446;DHT22;10382;49.140;9.234;2022-07-21T02:28:09;21.80;99.90
20446;DHT22;10382;49.140;9.234;2022-07-21T02:30:38;21.70;99.90
20446;DHT22;10382;49.140;9.234;2022-07-21T02:33:05;21.60;99.90
20446;DHT22;10382;49.140;9.234;2022-07-21T02:35:33;21.60;99.90
20446;DHT22;10382;49.140;9.234;2022-07-21T02:38:00;21.60;99.90
20446;DHT22;10382;49.140;9.234;2022-07-21T02:40:27;21.60;99.90
20446;DHT22;10382;49.140;9.234;2022-07-21T02:42:54;21.70;99.90
20446;DHT22;10382;49.140;9.234;2022-07-21T02:45:21;21.70;99.90
20446;DHT22;10382;49.140;9.234;2022-07-21T02:47:50;21.70;99.90
20446;DHT22;10382;49.140;9.234;2022-07-21T02:50:18;21.70;99.90
20446;DHT22;10382;49.140;9.234;2022-07-21T02:52:46;21.70;99.90
20446;DHT22;10382;49.140;9.234;2022-07-21T02:55:13;21.80;99.90
20446;DHT22;10382;49.140;9.234;2022-07-21T02:57:40;21.80;99.90
20446;DHT22;10382;49.140;9.234;2022-07-21T03:00:09;21.80;99.90
20446;DHT22;10382;49.140;9.234;2022-07-21T03:02:36;21.80;99.90
20446;DHT22;10382;49.140;9.234;2022-07-21T03:05:05;21.80;99.90
20446;DHT22;10382;49.140;9.234;2022-07-21T03:07:33;22.00;99.90
20446;DHT22;10382;49.140;9.234;2022-07-21T03:10:00;22.10;99.90
20446;DHT22;10382;49.140;9.234;2022-07-21T03:12:27;22.20;99.90
20446;DHT22;10382;49.140;9.234;2022-07-21T03:14:54;22.40;99.90
20446;DHT22;10382;49.140;9.234;2022-07-21T03:17:20;22.50;99.90
20446;DHT22;10382;49.140;9.234;2022-07-21T03:19:48;22.40;99.90
20446;DHT22;10382;49.140;9.234;2022-07-21T03:22:16;22.50;99.90
20446;DHT22;10382;49.140;9.234;2022-07-21T03:24:44;22.70;99.90
20446;DHT22;10382;49.140;9.234;2022-07-21T03:27:12;22.80;99.90
20446;DHT22;10382;49.140;9.234;2022-07-21T03:29:39;22.70;99.90
20446;DHT22;10382;49.140;9.234;2022-07-21T03:32:06;22.70;99.90
20446;DHT22;10382;49.140;9.234;2022-07-21T03:34:34;22.70;99.90
20446;DHT22;10382;49.140;9.234;2022-07-21T03:37:03;22.70;99.90
20446;DHT22;10382;49.140;9.234;2022-07-21T03:39:32;22.70;99.90
20446;DHT22;10382;49.140;9.234;2022-07-21T03:41:59;22.60;99.90
20446;DHT22;10382;49.140;9.234;2022-07-21T03:44:26;22.70;99.90
20446;DHT22;10382;49.140;9.234;2022-07-21T03:46:53;22.80;99.90
20446;DHT22;10382;49.140;9.234;2022-07-21T03:49:20;22.80;99.90
20446;DHT22;10382;49.140;9.234;2022-07-21T03:51:48;22.80;99.90
20446;DHT22;10382;49.140;9.234;2022-07-21T03:54:15;22.80;99.90
20446;DHT22;10382;49.140;9.234;2022-07-21T03:56:43;22.80;99.90
20446;DHT22;10382;49.140;9.234;2022-07-21T03:59:10;22.90;99.90
20446;DHT22;10382;49.140;9.234;2022-07-21T04:01:37;22.90;99.90
20446;DHT22;10382;49.140;9.234;2022-07-21T04:04:04;23.00;99.90
20446;DHT22;10382;49.140;9.234;2022-07-21T04:06:31;23.00;99.90
20446;DHT22;10382;49.140;9.234;2022-07-21T04:08:58;23.10;99.90
20446;DHT22;10382;49.140;9.234;2022-07-21T04:11:25;23.10;99.90
20446;DHT22;10382;49.140;9.234;2022-07-21T04:13:53;23.10;99.90
20446;DHT22;10382;49.140;9.234;2022-07-21T04:16:20;23.10;99.90
20446;DHT22;10382;49.140;9.234;2022-07-21T04:18:47;23.10;99.90
20446;DHT22;10382;49.140;9.234;2022-07-21T04:21:14;23.00;99.90
20446;DHT22;10382;49.140;9.234;2022-07-21T04:23:41;23.00;99.90
20446;DHT22;10382;49.140;9.234;2022-07-21T04:26:08;23.00;99.90
20446;DHT22;10382;49.140;9.234;2022-07-21T04:28:35;23.00;99.90
20446;DHT22;10382;49.140;9.234;2022-07-21T04:31:03;22.80;99.90
20446;DHT22;10382;49.140;9.234;2022-07-21T04:33:30;22.70;99.90
20446;DHT22;10382;49.140;9.234;2022-07-21T04:35:57;22.80;99.90
20446;DHT22;10382;49.140;9.234;2022-07-21T04:38:23;22.80;99.90
20446;DHT22;10382;49.140;9.234;2022-07-21T04:40:50;22.80;99.90
20446;DHT22;10382;49.140;9.234;2022-07-21T04:43:17;22.80;99.90
20446;DHT22;10382;49.140;9.234;2022-07-21T04:45:44;22.90;99.90
20446;DHT22;10382;49.140;9.234;2022-07-21T04:48:13;22.90;99.90
20446;DHT22;10382;49.140;9.234;2022-07-21T04:50:40;22.90;99.90
20446;DHT22;10382;49.140;9.234;2022-07-21T04:53:07;22.90;99.90
20446;DHT22;10382;49.140;9.234;2022-07-21T04:55:35;22.90;99.90
20446;DHT22;10382;49.140;9.234;2022-07-21T04:58:02;22.80;99.90
20446;DHT22;10382;49.140;9.234;2022-07-21T05:00:29;22.80;99.90
20446;DHT22;10382;49.140;9.234;2022-07-21T05:02:56;22.90;99.90
20446;DHT22;10382;49.140;9.234;2022-07-21T05:05:24;23.10;99.90
20446;DHT22;10382;49.140;9.234;2022-07-21T05:07:51;23.20;99.90
20446;DHT22;10382;49.140;9.234;2022-07-21T05:10:18;23.30;99.90
20446;DHT22;10382;49.140;9.234;2022-07-21T05:12:46;23.20;99.90
20446;DHT22;10382;49.140;9.234;2022-07-21T05:15:13;23.10;99.90
20446;DHT22;10382;49.140;9.234;2022-07-21T05:17:41;23.10;99.90
20446;DHT22;10382;49.140;9.234;2022-07-21T05:20:09;23.10;99.90
20446;DHT22;10382;49.140;9.234;2022-07-21T05:22:38;23.20;99.90
20446;DHT22;10382;49.140;9.234;2022-07-21T05:25:06;23.30;99.90
20446;DHT22;10382;49.140;9.234;2022-07-21T05:27:34;23.50;99.90
20446;DHT22;10382;49.140;9.234;2022-07-21T05:30:02;23.60;99.90
20446;DHT22;10382;49.140;9.234;2022-07-21T05:32:29;23.60;99.90
20446;DHT22;10382;49.140;9.234;2022-07-21T05:34:56;23.70;99.90
20446;DHT22;10382;49.140;9.234;2022-07-21T05:37:23;23.60;99.90
20446;DHT22;10382;49.140;9.234;2022-07-21T05:39:52;23.50;99.90
20446;DHT22;10382;49.140;9.234;2022-07-21T05:42:19;23.50;99.90
20446;DHT22;10382;49.140;9.234;2022-07-21T05:44:46;23.70;99.90
20446;DHT22;10382;49.140;9.234;2022-07-21T05:47:12;23.80;99.90
20446;DHT22;10382;49.140;9.234;2022-07-21T05:49:39;23.90;99.90
20446;DHT22;10382;49.140;9.234;2022-07-21T05:52:06;24.00;99.90
20446;DHT22;10382;49.140;9.234;2022-07-21T05:54:33;24.10;99.90
20446;DHT22;10382;49.140;9.234;2022-07-21T05:57:02;24.20;99.90
20446;DHT22;10382;49.140;9.234;2022-07-21T05:59:29;24.30;99.90
20446;DHT22;10382;49.140;9.234;2022-07-21T06:01:55;24.40;99.90
20446;DHT22;10382;49.140;9.234;2022-07-21T06:04:22;24.30;99.90
20446;DHT22;10382;49.140;9.234;2022-07-21T06:06:49;24.20;99.90
20446;DHT22;10382;49.140;9.234;2022-07-21T06:09:18;24.10;99.90
20446;DHT22;10382;49.140;9.234;2022-07-21T06:11:45;24.00;99.90
20446;DHT22;10382;49.140;9.234;2022-07-21T06:14:13;24.00;99.90
20446;DHT22;10382;49.140;9.234;2022-07-21T06:16:40;24.00;99.90
20446;DHT22;10382;49.140;9.234;2022-07-21T06:19:07;24.10;99.90
20446;DHT22;10382;49.140;9.234;2022-07-21T06:21:34;24.40;99.90
20446;DHT22;10382;49.140;9.234;2022-07-21T06:24:02;24.70;99.90
20446;DHT22;10382;49.140;9.234;2022-07-21T06:26:29;25.10;99.90
20446;DHT22;10382;49.140;9.234;2022-07-21T06:28:56;25.30;99.90
20446;DHT22;10382;49.140;9.234;2022-07-21T06:31:24;25.40;99.90
20446;DHT22;10382;49.140;9.234;2022-07-21T06:33:51;25.30;99.90
20446;DHT22;10382;49.140;9.234;2022-07-21T06:36:18;25.20;99.90
20446;DHT22;10382;49.140;9.234;2022-07-21T06:38:47;25.30;99.90
20446;DHT22;10382;49.140;9.234;2022-07-21T06:41:18;25.40;99.90
20446;DHT22;10382;49.140;9.234;2022-07-21T06:43:45;25.70;99.90
20446;DHT22;10382;49.140;9.234;2022-07-21T06:46:12;25.90;99.90
20446;DHT22;10382;49.140;9.234;2022-07-21T06:48:40;26.00;99.90
20446;DHT22;10382;49.140;9.234;2022-07-21T06:51:07;26.30;99.90
20446;DHT22;10382;49.140;9.234;2022-07-21T06:53:34;26.60;99.90
20446;DHT22;10382;49.140;9.234;2022-07-21T06:56:00;27.00;99.90
20446;DHT22;10382;49.140;9.234;2022-07-21T06:58:27;27.50;99.90
20446;DHT22;10382;49.140;9.234;2022-07-21T07:00:54;27.60;99.90
20446;DHT22;10382;49.140;9.234;2022-07-21T07:03:21;27.40;99.90
20446;DHT22;10382;49.140;9.234;2022-07-21T07:05:49;27.00;99.90
20446;DHT22;10382;49.140;9.234;2022-07-21T07:08:17;26.80;99.90
20446;DHT22;10382;49.140;9.234;2022-07-21T07:10:44;26.90;99.90
20446;DHT22;10382;49.140;9.234;2022-07-21T07:13:12;27.00;99.90
20446;DHT22;10382;49.140;9.234;2022-07-21T07:15:40;27.10;99.90
20446;DHT22;10382;49.140;9.234;2022-07-21T07:18:07;27.20;99.90
20446;DHT22;10382;49.140;9.234;2022-07-21T07:20:34;27.30;99.90
20446;DHT22;10382;49.140;9.234;2022-07-21T07:23:03;27.30;99.90
20446;DHT22;10382;49.140;9.234;2022-07-21T07:25:29;27.20;99.90
20446;DHT22;10382;49.140;9.234;2022-07-21T07:27:56;27.00;99.90
20446;DHT22;10382;49.140;9.234;2022-07-21T07:30:23;26.90;99.90
20446;DHT22;10382;49.140;9.234;2022-07-21T07:32:51;27.00;99.90
20446;DHT22;10382;49.140;9.234;2022-07-21T07:35:18;27.30;99.90
20446;DHT22;10382;49.140;9.234;2022-07-21T07:37:45;27.20;99.90
20446;DHT22;10382;49.140;9.234;2022-07-21T07:40:16;27.20;99.90
20446;DHT22;10382;49.140;9.234;2022-07-21T07:42:43;27.20;99.90
20446;DHT22;10382;49.140;9.234;2022-07-21T07:45:11;27.20;99.90
20446;DHT22;10382;49.140;9.234;2022-07-21T07:47:38;27.30;99.90
20446;DHT22;10382;49.140;9.234;2022-07-21T07:50:07;27.40;99.90
20446;DHT22;10382;49.140;9.234;2022-07-21T07:52:35;27.40;99.90
20446;DHT22;10382;49.140;9.234;2022-07-21T07:55:03;27.20;99.90
20446;DHT22;10382;49.140;9.234;2022-07-21T07:57:35;27.20;99.90
20446;DHT22;10382;49.140;9.234;2022-07-21T08:00:03;27.20;99.90
20446;DHT22;10382;49.140;9.234;2022-07-21T08:02:31;27.00;99.90
20446;DHT22;10382;49.140;9.234;2022-07-21T08:04:58;27.10;99.90
20446;DHT22;10382;49.140;9.234;2022-07-21T08:07:25;27.30;99.90
20446;DHT22;10382;49.140;9.234;2022-07-21T08:09:52;27.50;99.90
20446;DHT22;10382;49.140;9.234;2022-07-21T08:12:19;27.10;99.90
20446;DHT22;10382;49.140;9.234;2022-07-21T08:14:47;27.00;99.90
20446;DHT22;10382;49.140;9.234;2022-07-21T08:17:14;27.20;99.90
20446;DHT22;10382;49.140;9.234;2022-07-21T08:19:42;27.30;99.90
20446;DHT22;10382;49.140;9.234;2022-07-21T08:22:09;27.40;99.90
20446;DHT22;10382;49.140;9.234;2022-07-21T08:24:36;27.20;99.90
20446;DHT22;10382;49.140;9.234;2022-07-21T08:27:03;27.00;99.90
20446;DHT22;10382;49.140;9.234;2022-07-21T08:29:30;26.90;99.90
20446;DHT22;10382;49.140;9.234;2022-07-21T08:31:58;27.00;99.90
20446;DHT22;10382;49.140;9.234;2022-07-21T08:34:26;27.00;99.90
20446;DHT22;10382;49.140;9.234;2022-07-21T08:36:53;26.90;99.90
20446;DHT22;10382;49.140;9.234;2022-07-21T08:39:20;27.00;99.90
20446;DHT22;10382;49.140;9.234;2022-07-21T08:41:47;27.20;99.90
20446;DHT22;10382;49.140;9.234;2022-07-21T08:44:14;27.40;99.90
20446;DHT22;10382;49.140;9.234;2022-07-21T08:46:41;27.30;99.90
20446;DHT22;10382;49.140;9.234;2022-07-21T08:49:10;27.10;99.90
20446;DHT22;10382;49.140;9.234;2022-07-21T08:51:37;27.10;99.90
20446;DHT22;10382;49.140;9.234;2022-07-21T08:54:04;27.40;99.90
20446;DHT22;10382;49.140;9.234;2022-07-21T08:56:31;27.60;99.90
20446;DHT22;10382;49.140;9.234;2022-07-21T08:58:58;27.90;99.90
20446;DHT22;10382;49.140;9.234;2022-07-21T09:01:25;28.00;99.90
20446;DHT22;10382;49.140;9.234;2022-07-21T09:03:52;27.60;99.90
20446;DHT22;10382;49.140;9.234;2022-07-21T09:06:21;27.30;99.90
20446;DHT22;10382;49.140;9.234;2022-07-21T09:08:49;27.40;99.90
20446;DHT22;10382;49.140;9.234;2022-07-21T09:11:20;27.70;99.90
20446;DHT22;10382;49.140;9.234;2022-07-21T09:13:49;28.20;99.90
20446;DHT22;10382;49.140;9.234;2022-07-21T09:16:33;28.50;99.90
20446;DHT22;10382;49.140;9.234;2022-07-21T09:19:00;28.70;99.90
20446;DHT22;10382;49.140;9.234;2022-07-21T09:21:29;28.90;99.90
20446;DHT22;10382;49.140;9.234;2022-07-21T09:24:11;29.00;99.90
20446;DHT22;10382;49.140;9.234;2022-07-21T09:26:56;29.30;99.90
20446;DHT22;10382;49.140;9.234;2022-07-21T09:29:24;29.70;99.90
20446;DHT22;10382;49.140;9.234;2022-07-21T09:31:51;29.80;99.90
20446;DHT22;10382;49.140;9.234;2022-07-21T09:34:18;29.90;99.90
20446;DHT22;10382;49.140;9.234;2022-07-21T09:36:57;30.00;99.90
20446;DHT22;10382;49.140;9.234;2022-07-21T09:39:44;29.60;99.90
20446;DHT22;10382;49.140;9.234;2022-07-21T09:42:16;29.30;99.90
20446;DHT22;10382;49.140;9.234;2022-07-21T09:44:45;29.50;99.90
20446;DHT22;10382;49.140;9.234;2022-07-21T09:47:14;29.80;99.90
20446;DHT22;10382;49.140;9.234;2022-07-21T09:49:43;30.20;99.90
20446;DHT22;10382;49.140;9.234;2022-07-21T09:52:23;30.10;99.90
20446;DHT22;10382;49.140;9.234;2022-07-21T09:54:52;29.70;99.90
20446;DHT22;10382;49.140;9.234;2022-07-21T09:57:20;29.60;99.90
20446;DHT22;10382;49.140;9.234;2022-07-21T09:59:48;29.70;99.90
20446;DHT22;10382;49.140;9.234;2022-07-21T10:02:18;29.80;99.90
20446;DHT22;10382;49.140;9.234;2022-07-21T10:04:48;29.90;99.90
20446;DHT22;10382;49.140;9.234;2022-07-21T10:07:18;29.80;99.90
20446;DHT22;10382;49.140;9.234;2022-07-21T10:09:47;29.30;99.90
20446;DHT22;10382;49.140;9.234;2022-07-21T10:12:15;29.00;99.90
20446;DHT22;10382;49.140;9.234;2022-07-21T10:14:42;28.70;99.90
20446;DHT22;10382;49.140;9.234;2022-07-21T10:17:09;28.60;99.90
20446;DHT22;10382;49.140;9.234;2022-07-21T10:19:42;28.40;99.90
20446;DHT22;10382;49.140;9.234;2022-07-21T10:22:19;28.40;99.90
20446;DHT22;10382;49.140;9.234;2022-07-21T10:24:49;28.40;99.90
20446;DHT22;10382;49.140;9.234;2022-07-21T10:27:16;28.40;99.90
20446;DHT22;10382;49.140;9.234;2022-07-21T10:29:58;28.60;99.90
20446;DHT22;10382;49.140;9.234;2022-07-21T10:32:28;28.70;99.90
20446;DHT22;10382;49.140;9.234;2022-07-21T10:35:00;28.90;99.90
20446;DHT22;10382;49.140;9.234;2022-07-21T10:37:44;29.10;99.90
20446;DHT22;10382;49.140;9.234;2022-07-21T10:40:39;29.20;99.90
20446;DHT22;10382;49.140;9.234;2022-07-21T10:43:37;29.30;99.90
20446;DHT22;10382;49.140;9.234;2022-07-21T10:46:33;29.30;99.90
20446;DHT22;10382;49.140;9.234;2022-07-21T10:49:03;29.30;99.90
20446;DHT22;10382;49.140;9.234;2022-07-21T10:51:33;29.30;99.90
20446;DHT22;10382;49.140;9.234;2022-07-21T10:54:23;29.50;99.90
20446;DHT22;10382;49.140;9.234;2022-07-21T10:57:29;29.50;99.90
20446;DHT22;10382;49.140;9.234;2022-07-21T11:00:22;29.40;99.90
20446;DHT22;10382;49.140;9.234;2022-07-21T11:02:51;29.50;99.90
20446;DHT22;10382;49.140;9.234;2022-07-21T11:05:19;29.50;99.90
20446;DHT22;10382;49.140;9.234;2022-07-21T11:08:12;29.30;99.90
20446;DHT22;10382;49.140;9.234;2022-07-21T11:10:40;29.20;99.90
20446;DHT22;10382;49.140;9.234;2022-07-21T11:13:08;29.30;99.90
20446;DHT22;10382;49.140;9.234;2022-07-21T11:15:55;29.60;99.90
20446;DHT22;10382;49.140;9.234;2022-07-21T11:18:24;30.00;99.90
20446;DHT22;10382;49.140;9.234;2022-07-21T11:21:10;30.30;98.90
20446;DHT22;10382;49.140;9.234;2022-07-21T11:23:39;30.40;96.80
20446;DHT22;10382;49.140;9.234;2022-07-21T11:26:07;30.40;97.20
20446;DHT22;10382;49.140;9.234;2022-07-21T11:28:35;30.40;97.00
20446;DHT22;10382;49.140;9.234;2022-07-21T11:31:12;30.20;96.60
20446;DHT22;10382;49.140;9.234;2022-07-21T11:33:40;29.90;97.50
20446;DHT22;10382;49.140;9.234;2022-07-21T11:36:07;29.90;98.20
20446;DHT22;10382;49.140;9.234;2022-07-21T11:38:35;30.20;97.90
20446;DHT22;10382;49.140;9.234;2022-07-21T11:41:15;30.10;98.10
20446;DHT22;10382;49.140;9.234;2022-07-21T11:43:45;30.10;98.30
20446;DHT22;10382;49.140;9.234;2022-07-21T11:46:13;30.10;99.40
20446;DHT22;10382;49.140;9.234;2022-07-21T11:48:40;30.30;99.50
20446;DHT22;10382;49.140;9.234;2022-07-21T11:51:07;30.60;99.30
20446;DHT22;10382;49.140;9.234;2022-07-21T11:53:34;30.90;97.70
20446;DHT22;10382;49.140;9.234;2022-07-21T11:56:01;31.20;96.00
20446;DHT22;10382;49.140;9.234;2022-07-21T11:58:28;31.40;95.50
20446;DHT22;10382;49.140;9.234;2022-07-21T12:01:07;31.60;94.20
20446;DHT22;10382;49.140;9.234;2022-07-21T12:03:34;31.60;94.40
20446;DHT22;10382;49.140;9.234;2022-07-21T12:06:12;31.60;94.20
20446;DHT22;10382;49.140;9.234;2022-07-21T12:08:40;31.60;93.10
20446;DHT22;10382;49.140;9.234;2022-07-21T12:11:09;31.60;93.60
20446;DHT22;10382;49.140;9.234;2022-07-21T12:13:54;31.70;93.90
20446;DHT22;10382;49.140;9.234;2022-07-21T12:16:23;31.90;92.80
20446;DHT22;10382;49.140;9.234;2022-07-21T12:19:08;32.20;92.70
20446;DHT22;10382;49.140;9.234;2022-07-21T12:21:43;32.30;90.80
20446;DHT22;10382;49.140;9.234;2022-07-21T12:24:11;31.90;90.80
20446;DHT22;10382;49.140;9.234;2022-07-21T12:26:38;31.70;89.20
20446;DHT22;10382;49.140;9.234;2022-07-21T12:29:05;31.60;88.50
20446;DHT22;10382;49.140;9.234;2022-07-21T12:31:35;31.60;89.80
20446;DHT22;10382;49.140;9.234;2022-07-21T12:34:12;31.60;90.50
20446;DHT22;10382;49.140;9.234;2022-07-21T12:36:41;31.70;90.20
20446;DHT22;10382;49.140;9.234;2022-07-21T12:39:16;31.60;90.00
20446;DHT22;10382;49.140;9.234;2022-07-21T12:41:58;31.60;90.50
20446;DHT22;10382;49.140;9.234;2022-07-21T12:44:25;31.60;90.30
20446;DHT22;10382;49.140;9.234;2022-07-21T12:46:53;31.70;90.50
20446;DHT22;10382;49.140;9.234;2022-07-21T12:49:20;31.90;88.20
20446;DHT22;10382;49.140;9.234;2022-07-21T12:51:55;31.90;87.90
20446;DHT22;10382;49.140;9.234;2022-07-21T12:54:22;32.00;87.80
20446;DHT22;10382;49.140;9.234;2022-07-21T12:56:49;32.20;87.80
20446;DHT22;10382;49.140;9.234;2022-07-21T12:59:16;32.20;87.30
20446;DHT22;10382;49.140;9.234;2022-07-21T13:01:43;32.40;86.80
20446;DHT22;10382;49.140;9.234;2022-07-21T13:04:11;32.50;87.10
20446;DHT22;10382;49.140;9.234;2022-07-21T13:06:38;32.60;87.10
20446;DHT22;10382;49.140;9.234;2022-07-21T13:09:05;32.70;84.60
20446;DHT22;10382;49.140;9.234;2022-07-21T13:11:32;32.70;84.10
20446;DHT22;10382;49.140;9.234;2022-07-21T13:13:59;32.70;83.70
20446;DHT22;10382;49.140;9.234;2022-07-21T13:16:27;32.60;83.60
20446;DHT22;10382;49.140;9.234;2022-07-21T13:18:55;32.60;82.00
20446;DHT22;10382;49.140;9.234;2022-07-21T13:21:24;32.70;83.30
20446;DHT22;10382;49.140;9.234;2022-07-21T13:23:51;32.80;84.30
20446;DHT22;10382;49.140;9.234;2022-07-21T13:26:20;33.00;80.80
20446;DHT22;10382;49.140;9.234;2022-07-21T13:28:47;32.60;82.20
20446;DHT22;10382;49.140;9.234;2022-07-21T13:31:14;32.30;84.00
20446;DHT22;10382;49.140;9.234;2022-07-21T13:33:42;32.30;85.40
20446;DHT22;10382;49.140;9.234;2022-07-21T13:36:09;32.30;85.40
20446;DHT22;10382;49.140;9.234;2022-07-21T13:38:37;32.30;85.10
20446;DHT22;10382;49.140;9.234;2022-07-21T13:41:05;32.30;85.60
20446;DHT22;10382;49.140;9.234;2022-07-21T13:43:32;32.50;85.10
20446;DHT22;10382;49.140;9.234;2022-07-21T13:45:59;32.60;85.50
20446;DHT22;10382;49.140;9.234;2022-07-21T13:48:26;32.50;84.50
20446;DHT22;10382;49.140;9.234;2022-07-21T13:50:53;32.60;84.60
20446;DHT22;10382;49.140;9.234;2022-07-21T13:53:19;32.70;83.80
20446;DHT22;10382;49.140;9.234;2022-07-21T13:55:48;33.00;81.10
20446;DHT22;10382;49.140;9.234;2022-07-21T13:58:17;33.20;79.20
20446;DHT22;10382;49.140;9.234;2022-07-21T14:00:44;33.20;78.00
20446;DHT22;10382;49.140;9.234;2022-07-21T14:03:11;33.20;76.50
20446;DHT22;10382;49.140;9.234;2022-07-21T14:05:38;32.70;78.20
20446;DHT22;10382;49.140;9.234;2022-07-21T14:08:05;32.60;78.70
20446;DHT22;10382;49.140;9.234;2022-07-21T14:10:32;32.50;79.00
20446;DHT22;10382;49.140;9.234;2022-07-21T14:13:00;32.50;78.60
20446;DHT22;10382;49.140;9.234;2022-07-21T14:15:27;32.40;80.00
20446;DHT22;10382;49.140;9.234;2022-07-21T14:17:54;32.30;80.50
20446;DHT22;10382;49.140;9.234;2022-07-21T14:20:21;32.10;78.20
20446;DHT22;10382;49.140;9.234;2022-07-21T14:22:48;31.90;81.00
20446;DHT22;10382;49.140;9.234;2022-07-21T14:25:15;31.80;81.50
20446;DHT22;10382;49.140;9.234;2022-07-21T14:27:43;31.80;81.00
20446;DHT22;10382;49.140;9.234;2022-07-21T14:30:12;31.80;80.30
20446;DHT22;10382;49.140;9.234;2022-07-21T14:32:39;31.80;82.10
20446;DHT22;10382;49.140;9.234;2022-07-21T14:35:06;31.90;77.30
20446;DHT22;10382;49.140;9.234;2022-07-21T14:37:33;31.70;79.20
20446;DHT22;10382;49.140;9.234;2022-07-21T14:40:00;31.70;79.30
20446;DHT22;10382;49.140;9.234;2022-07-21T14:42:27;31.90;78.50
20446;DHT22;10382;49.140;9.234;2022-07-21T14:44:54;32.00;78.10
20446;DHT22;10382;49.140;9.234;2022-07-21T14:47:23;32.00;77.50
20446;DHT22;10382;49.140;9.234;2022-07-21T14:49:50;32.10;76.90
20446;DHT22;10382;49.140;9.234;2022-07-21T14:52:17;32.20;75.40
20446;DHT22;10382;49.140;9.234;2022-07-21T14:54:44;32.30;74.60
20446;DHT22;10382;49.140;9.234;2022-07-21T14:57:11;32.20;74.40
20446;DHT22;10382;49.140;9.234;2022-07-21T14:59:37;32.20;73.90
20446;DHT22;10382;49.140;9.234;2022-07-21T15:02:04;31.90;75.60
20446;DHT22;10382;49.140;9.234;2022-07-21T15:04:33;31.80;76.80
20446;DHT22;10382;49.140;9.234;2022-07-21T15:07:00;31.90;77.70
20446;DHT22;10382;49.140;9.234;2022-07-21T15:09:27;32.00;77.50
20446;DHT22;10382;49.140;9.234;2022-07-21T15:11:53;32.10;75.60
20446;DHT22;10382;49.140;9.234;2022-07-21T15:14:20;31.90;75.50
20446;DHT22;10382;49.140;9.234;2022-07-21T15:16:48;31.90;76.20
20446;DHT22;10382;49.140;9.234;2022-07-21T15:19:15;31.90;76.50
20446;DHT22;10382;49.140;9.234;2022-07-21T15:21:43;32.10;77.10
20446;DHT22;10382;49.140;9.234;2022-07-21T15:24:10;32.40;75.90
20446;DHT22;10382;49.140;9.234;2022-07-21T15:26:37;32.70;74.80
20446;DHT22;10382;49.140;9.234;2022-07-21T15:29:04;32.90;73.40
20446;DHT22;10382;49.140;9.234;2022-07-21T15:31:32;32.90;72.70
20446;DHT22;10382;49.140;9.234;2022-07-21T15:33:58;32.70;73.10
20446;DHT22;10382;49.140;9.234;2022-07-21T15:36:25;32.40;73.70
20446;DHT22;10382;49.140;9.234;2022-07-21T15:38:54;32.40;75.00
20446;DHT22;10382;49.140;9.234;2022-07-21T15:41:21;32.60;74.30